<?xml version='1.0' encoding='utf-8'?>
<gpx xmlns="http://www.topografix.com/GPX/1/1" xmlns:gpxx="http://www.garmin.com/xmlschemas/GpxExtensions/v3" xmlns:xsi="http://www.w3.org/2001/XMLSchema-instance" creator="eTrex 30" version="1.1" xsi:schemaLocation="http://www.topografix.com/GPX/1/1 http://www.topografix.com/GPX/1/1/gpx.xsd http://www.garmin.com/xmlschemas/GpxExtensions/v3 http://www8.garmin.com/xmlschemas/GpxExtensionsv3.xsd http://www.garmin.com/xmlschemas/WaypointExtension/v1 http://www8.garmin.com/xmlschemas/WaypointExtensionv1.xsd http://www.garmin.com/xmlschemas/TrackPointExtension/v1 http://www.garmin.com/xmlschemas/TrackPointExtensionv1.xsd"><metadata><link href="http://www.garmin.com"><text>Garmin International</text></link><time>2015-11-20T14:30:34Z</time></metadata><trk><name>20-NOV-15 16:30:28</name><extensions><gpxx:TrackExtension><gpxx:DisplayColor>Cyan</gpxx:DisplayColor></gpxx:TrackExtension></extensions><trkseg><trkpt lat="31.5172454808" lon="35.5587068293"><ele>-268.2</ele><time>2015-11-20T11:19:00Z</time></trkpt><trkpt lat="31.5159368981" lon="35.5587113556"><ele>-265.7</ele><time>2015-11-20T11:20:45Z</time></trkpt><trkpt lat="31.5143127367" lon="35.5590390880"><ele>-272.0</ele><time>2015-11-20T11:21:36Z</time></trkpt><trkpt lat="31.5095906239" lon="35.5615757033"><ele>-267.3</ele><time>2015-11-20T11:24:21Z</time></trkpt><trkpt lat="31.5075933840" lon="35.5623476766"><ele>-285.6</ele><time>2015-11-20T11:24:42Z</time></trkpt><trkpt lat="31.5055347886" lon="35.5627425481"><ele>-305.5</ele><time>2015-11-20T11:25:00Z</time></trkpt><trkpt lat="31.5013999958" lon="35.5629271176"><ele>-327.6</ele><time>2015-11-20T11:25:34Z</time></trkpt><trkpt lat="31.5001671854" lon="35.5632483121"><ele>-339.5</ele><time>2015-11-20T11:25:44Z</time></trkpt><trkpt lat="31.4971977286" lon="35.5644738302"><ele>-349.9</ele><time>2015-11-20T11:26:08Z</time></trkpt><trkpt lat="31.4945599437" lon="35.5648725573"><ele>-369.6</ele><time>2015-11-20T11:26:29Z</time></trkpt><trkpt lat="31.4936689474" lon="35.5651646666"><ele>-379.9</ele><time>2015-11-20T11:26:37Z</time></trkpt><trkpt lat="31.4929041825" lon="35.5655509047"><ele>-375.0</ele><time>2015-11-20T11:26:45Z</time></trkpt><trkpt lat="31.4916365873" lon="35.5665591639"><ele>-369.1</ele><time>2015-11-20T11:27:01Z</time></trkpt><trkpt lat="31.4865170885" lon="35.5713525228"><ele>-381.3</ele><time>2015-11-20T11:28:19Z</time></trkpt><trkpt lat="31.4838813152" lon="35.5730576534"><ele>-380.7</ele><time>2015-11-20T11:29:07Z</time></trkpt><trkpt lat="31.4797676448" lon="35.5747424997"><ele>-377.1</ele><time>2015-11-20T11:30:21Z</time></trkpt><trkpt lat="31.4776071254" lon="35.5753942765"><ele>-389.8</ele><time>2015-11-20T11:30:56Z</time></trkpt><trkpt lat="31.4742089342" lon="35.5754579790"><ele>-371.4</ele><time>2015-11-20T11:31:47Z</time></trkpt><trkpt lat="31.4728206396" lon="35.5751991458"><ele>-371.3</ele><time>2015-11-20T11:32:08Z</time></trkpt><trkpt lat="31.4716608357" lon="35.5747217964"><ele>-371.8</ele><time>2015-11-20T11:32:29Z</time></trkpt><trkpt lat="31.4689539839" lon="35.5729662906"><ele>-386.9</ele><time>2015-11-20T11:33:32Z</time></trkpt><trkpt lat="31.4680551924" lon="35.5726744328"><ele>-386.3</ele><time>2015-11-20T11:33:49Z</time></trkpt><trkpt lat="31.4671491086" lon="35.5726523884"><ele>-390.7</ele><time>2015-11-20T11:34:35Z</time></trkpt><trkpt lat="31.4675541222" lon="35.5726885144"><ele>-386.8</ele><time>2015-11-20T11:35:03Z</time></trkpt><trkpt lat="31.4671538863" lon="35.5723223090"><ele>-392.6</ele><time>2015-11-20T11:37:30Z</time></trkpt><trkpt lat="31.4669678081" lon="35.5723974109"><ele>-397.9</ele><time>2015-11-20T11:37:58Z</time></trkpt><trkpt lat="31.4671260584" lon="35.5724161863"><ele>-392.4</ele><time>2015-11-20T11:38:26Z</time></trkpt><trkpt lat="31.4671419002" lon="35.5726170167"><ele>-391.0</ele><time>2015-11-20T11:38:42Z</time></trkpt><trkpt lat="31.4669977315" lon="35.5730359443"><ele>-387.1</ele><time>2015-11-20T11:39:24Z</time></trkpt><trkpt lat="31.4668450132" lon="35.5727281608"><ele>-398.6</ele><time>2015-11-20T11:50:39Z</time></trkpt><trkpt lat="31.4668808039" lon="35.5730755068"><ele>-385.9</ele><time>2015-11-20T11:52:32Z</time></trkpt><trkpt lat="31.4668027684" lon="35.5728315096"><ele>-398.1</ele><time>2015-11-20T11:54:24Z</time></trkpt><trkpt lat="31.4674230292" lon="35.5727088824"><ele>-387.4</ele><time>2015-11-20T11:56:03Z</time></trkpt><trkpt lat="31.4606029261" lon="35.5722517334"><ele>-376.1</ele><time>2015-11-20T11:58:36Z</time></trkpt><trkpt lat="31.4587177522" lon="35.5718633998"><ele>-373.3</ele><time>2015-11-20T11:59:10Z</time></trkpt><trkpt lat="31.4575236663" lon="35.5714263674"><ele>-377.5</ele><time>2015-11-20T11:59:30Z</time></trkpt><trkpt lat="31.4566419739" lon="35.5707139056"><ele>-384.3</ele><time>2015-11-20T11:59:47Z</time></trkpt><trkpt lat="31.4539490361" lon="35.5673773214"><ele>-392.5</ele><time>2015-11-20T12:00:47Z</time></trkpt><trkpt lat="31.4531227481" lon="35.5666599981"><ele>-366.8</ele><time>2015-11-20T12:01:03Z</time></trkpt><trkpt lat="31.4520681370" lon="35.5662227981"><ele>-393.9</ele><time>2015-11-20T12:01:20Z</time></trkpt><trkpt lat="31.4496414922" lon="35.5659154337"><ele>-389.8</ele><time>2015-11-20T12:01:58Z</time></trkpt><trkpt lat="31.4484976977" lon="35.5659702513"><ele>-369.9</ele><time>2015-11-20T12:02:17Z</time></trkpt><trkpt lat="31.4442609809" lon="35.5672218371"><ele>-380.0</ele><time>2015-11-20T12:03:32Z</time></trkpt><trkpt lat="31.4402102586" lon="35.5672128685"><ele>-382.4</ele><time>2015-11-20T12:04:32Z</time></trkpt><trkpt lat="31.4400342386" lon="35.5669789296"><ele>-395.3</ele><time>2015-11-20T12:07:44Z</time></trkpt><trkpt lat="31.4394492656" lon="35.5670383573"><ele>-392.8</ele><time>2015-11-20T12:08:14Z</time></trkpt><trkpt lat="31.4385969937" lon="35.5667975452"><ele>-364.1</ele><time>2015-11-20T12:08:31Z</time></trkpt><trkpt lat="31.4353376906" lon="35.5655361526"><ele>-383.9</ele><time>2015-11-20T12:09:28Z</time></trkpt><trkpt lat="31.4343534876" lon="35.5648567993"><ele>-370.7</ele><time>2015-11-20T12:09:47Z</time></trkpt><trkpt lat="31.4327829704" lon="35.5632709432"><ele>-361.1</ele><time>2015-11-20T12:10:21Z</time></trkpt><trkpt lat="31.4317581989" lon="35.5629579630"><ele>-373.1</ele><time>2015-11-20T12:10:37Z</time></trkpt><trkpt lat="31.4289812744" lon="35.5632809177"><ele>-396.6</ele><time>2015-11-20T12:11:27Z</time></trkpt><trkpt lat="31.4258184470" lon="35.5640839878"><ele>-389.4</ele><time>2015-11-20T12:12:28Z</time></trkpt><trkpt lat="31.4250913169" lon="35.5640673917"><ele>-376.0</ele><time>2015-11-20T12:12:44Z</time></trkpt><trkpt lat="31.4208285324" lon="35.5630333163"><ele>-384.6</ele><time>2015-11-20T12:14:10Z</time></trkpt><trkpt lat="31.4130132459" lon="35.5629842822"><ele>-364.5</ele><time>2015-11-20T12:16:36Z</time></trkpt><trkpt lat="31.4096887317" lon="35.5623952858"><ele>-383.7</ele><time>2015-11-20T12:17:34Z</time></trkpt><trkpt lat="31.4065102302" lon="35.5614340492"><ele>-381.2</ele><time>2015-11-20T12:18:34Z</time></trkpt><trkpt lat="31.4051754121" lon="35.5608672649"><ele>-370.4</ele><time>2015-11-20T12:19:01Z</time></trkpt><trkpt lat="31.4037390891" lon="35.5594509747"><ele>-372.4</ele><time>2015-11-20T12:19:35Z</time></trkpt><trkpt lat="31.4014765620" lon="35.5560863111"><ele>-372.8</ele><time>2015-11-20T12:20:42Z</time></trkpt><trkpt lat="31.4004277345" lon="35.5548169557"><ele>-374.4</ele><time>2015-11-20T12:21:08Z</time></trkpt><trkpt lat="31.3989477418" lon="35.5537655298"><ele>-363.5</ele><time>2015-11-20T12:21:40Z</time></trkpt><trkpt lat="31.3965022378" lon="35.5525614694"><ele>-362.8</ele><time>2015-11-20T12:22:23Z</time></trkpt><trkpt lat="31.3945017289" lon="35.5519655999"><ele>-368.6</ele><time>2015-11-20T12:22:56Z</time></trkpt><trkpt lat="31.3932472933" lon="35.5518493429"><ele>-366.1</ele><time>2015-11-20T12:23:16Z</time></trkpt><trkpt lat="31.3852637820" lon="35.5520588905"><ele>-389.2</ele><time>2015-11-20T12:24:53Z</time></trkpt><trkpt lat="31.3825873565" lon="35.5514159147"><ele>-374.0</ele><time>2015-11-20T12:25:23Z</time></trkpt><trkpt lat="31.3794391975" lon="35.5513047706"><ele>-389.7</ele><time>2015-11-20T12:26:13Z</time></trkpt><trkpt lat="31.3783601113" lon="35.5510875955"><ele>-385.4</ele><time>2015-11-20T12:26:31Z</time></trkpt><trkpt lat="31.3747665379" lon="35.5498872232"><ele>-381.4</ele><time>2015-11-20T12:27:26Z</time></trkpt><trkpt lat="31.3726934418" lon="35.5485855974"><ele>-389.9</ele><time>2015-11-20T12:28:23Z</time></trkpt><trkpt lat="31.3724658731" lon="35.5479781609"><ele>-397.1</ele><time>2015-11-20T13:26:12Z</time></trkpt><trkpt lat="31.3727232814" lon="35.5485937279"><ele>-389.7</ele><time>2015-11-20T13:33:32Z</time></trkpt><trkpt lat="31.3706663623" lon="35.5475363508"><ele>-385.6</ele><time>2015-11-20T13:34:43Z</time></trkpt><trkpt lat="31.3689200766" lon="35.5469362065"><ele>-380.1</ele><time>2015-11-20T13:35:24Z</time></trkpt><trkpt lat="31.3668805920" lon="35.5467528943"><ele>-388.9</ele><time>2015-11-20T13:35:59Z</time></trkpt><trkpt lat="31.3588428497" lon="35.5480188131"><ele>-394.2</ele><time>2015-11-20T13:37:54Z</time></trkpt><trkpt lat="31.3545941468" lon="35.5478466488"><ele>-390.8</ele><time>2015-11-20T13:38:59Z</time></trkpt><trkpt lat="31.3499658275" lon="35.5478805117"><ele>-392.7</ele><time>2015-11-20T13:40:11Z</time></trkpt><trkpt lat="31.3453310542" lon="35.5475303158"><ele>-385.5</ele><time>2015-11-20T13:41:41Z</time></trkpt><trkpt lat="31.3441654667" lon="35.5476051662"><ele>-388.7</ele><time>2015-11-20T13:41:59Z</time></trkpt><trkpt lat="31.3401436619" lon="35.5484098289"><ele>-393.5</ele><time>2015-11-20T13:42:51Z</time></trkpt><trkpt lat="31.3387565408" lon="35.5484245811"><ele>-391.5</ele><time>2015-11-20T13:43:10Z</time></trkpt><trkpt lat="31.3354847487" lon="35.5479748920"><ele>-391.4</ele><time>2015-11-20T13:44:01Z</time></trkpt><trkpt lat="31.3338744175" lon="35.5481091700"><ele>-394.4</ele><time>2015-11-20T13:44:27Z</time></trkpt><trkpt lat="31.3330033701" lon="35.5478691123"><ele>-390.2</ele><time>2015-11-20T13:44:46Z</time></trkpt><trkpt lat="31.3323691953" lon="35.5474825390"><ele>-387.9</ele><time>2015-11-20T13:45:02Z</time></trkpt><trkpt lat="31.3304211572" lon="35.5454801023"><ele>-384.2</ele><time>2015-11-20T13:45:55Z</time></trkpt><trkpt lat="31.3294418156" lon="35.5449583288"><ele>-388.3</ele><time>2015-11-20T13:46:10Z</time></trkpt><trkpt lat="31.3284083270" lon="35.5447063688"><ele>-391.7</ele><time>2015-11-20T13:46:22Z</time></trkpt><trkpt lat="31.3205613568" lon="35.5447204504"><ele>-389.8</ele><time>2015-11-20T13:48:00Z</time></trkpt><trkpt lat="31.3187191822" lon="35.5442400835"><ele>-389.3</ele><time>2015-11-20T13:48:29Z</time></trkpt><trkpt lat="31.3172065001" lon="35.5434619077"><ele>-386.7</ele><time>2015-11-20T13:49:00Z</time></trkpt><trkpt lat="31.3078081235" lon="35.5369748175"><ele>-358.6</ele><time>2015-11-20T13:55:20Z</time></trkpt><trkpt lat="31.3046310470" lon="35.5355784763"><ele>-363.9</ele><time>2015-11-20T13:56:12Z</time></trkpt><trkpt lat="31.3013767730" lon="35.5348905735"><ele>-359.5</ele><time>2015-11-20T13:57:10Z</time></trkpt><trkpt lat="31.2946257368" lon="35.5349618196"><ele>-349.0</ele><time>2015-11-20T13:59:31Z</time></trkpt><trkpt lat="31.2909527030" lon="35.5343339313"><ele>-355.3</ele><time>2015-11-20T14:00:38Z</time></trkpt><trkpt lat="31.2716868147" lon="35.5263761524"><ele>-340.6</ele><time>2015-11-20T14:07:53Z</time></trkpt><trkpt lat="31.2719138805" lon="35.5260456540"><ele>-339.2</ele><time>2015-11-20T14:30:30Z</time></trkpt></trkseg></trk></gpx>